Augusta, Wisconsin
Current Conditions -  °F | °C
As of 3:31 AM on Friday 28 Nov 2014 (Local Time) from KEAU Reporting Station
Light Snow Light Snow  
Wind Chill: -2°   Ceiling: 2100
Heat Index:   Visibility: 2.5mi
Dew Point:   Wind: 7mph
Humidity: 80%   Direction: 130°SE
Pressure: 30.2"   Gusts: NA
Location:  44.68°N, 91.12°W
Report Text: KEAU 280931Z AUTO 13006KT 2 1/2SM -SN OVC021 M13/M16 A3020 RMK AO2 P0000 T11281156
Loading
Personal Weather Stations






























Interactive Weather Map New forecast layout! Learn more

10-Day Weather Forecast

Advertisements
Track Severe Weather on mobile